Time;durP1;ratioP1;P1;durP2;ratioP2;P2;SDS_P1;SDS_P2;PMS_P1;PMS_P2;Temp;Humidity;BMP_temperature;BMP_pressure;BME280_temperature;BME280_humidity;BME280_pressure;Samples;Min_cycle;Max_cycle;Signal;HPM_P1;HPM_P2
2023/12/15 00:01:40;;;;;;;15.93;12.73;;;;;;;;;;5054684;28;20880;-60
2023/12/15 00:04:07;;;;;;;13.23;10.57;;;;;;;;;;5054849;28;20444;-60
2023/12/15 00:06:35;;;;;;;11.03;9.93;;;;;;;;;;5054538;28;20285;-60
2023/12/15 00:09:02;;;;;;;15.10;10.88;;;;;;;;;;5054470;28;20535;-60
2023/12/15 00:11:29;;;;;;;12.13;9.57;;;;;;;;;;5054374;28;20190;-60
2023/12/15 00:13:56;;;;;;;11.25;10.05;;;;;;;;;;5054628;28;20827;-60
2023/12/15 00:16:23;;;;;;;14.77;10.57;;;;;;;;;;5054442;28;20596;-60
2023/12/15 00:18:50;;;;;;;12.20;9.60;;;;;;;;;;5054312;28;20448;-60
2023/12/15 00:21:17;;;;;;;14.53;9.97;;;;;;;;;;5054253;28;20536;-60
2023/12/15 00:23:45;;;;;;;12.90;10.37;;;;;;;;;;5053819;28;21007;-60
2023/12/15 00:26:12;;;;;;;11.13;8.83;;;;;;;;;;5053529;28;20535;-60
2023/12/15 00:28:39;;;;;;;12.67;9.37;;;;;;;;;;5054242;28;20471;-60
2023/12/15 00:31:06;;;;;;;12.70;9.50;;;;;;;;;;5054103;28;20444;-60
2023/12/15 00:33:33;;;;;;;10.70;9.37;;;;;;;;;;5053982;28;20443;-60
2023/12/15 00:36:00;;;;;;;11.30;8.80;;;;;;;;;;5054095;28;20890;-60
2023/12/15 00:38:27;;;;;;;12.57;9.27;;;;;;;;;;5053925;28;20436;-60
2023/12/15 00:40:56;;;;;;;11.87;9.33;;;;;;;;;;5054031;28;20849;-60
2023/12/15 00:43:22;;;;;;;10.43;7.87;;;;;;;;;;5053906;28;20527;-60
2023/12/15 00:45:49;;;;;;;12.30;9.00;;;;;;;;;;5053808;28;20532;-60
2023/12/15 00:48:16;;;;;;;9.20;7.50;;;;;;;;;;5053742;28;20444;-60
2023/12/15 00:50:43;;;;;;;11.20;8.93;;;;;;;;;;5053715;28;20444;-60
2023/12/15 00:53:10;;;;;;;13.60;9.37;;;;;;;;;;5053573;28;20504;-60
2023/12/15 00:55:37;;;;;;;12.20;9.00;;;;;;;;;;5053263;28;21014;-59
2023/12/15 00:58:05;;;;;;;12.30;9.50;;;;;;;;;;5053841;28;20450;-60
2023/12/15 01:00:32;;;;;;;11.80;10.00;;;;;;;;;;5053910;28;20504;-60
2023/12/15 01:02:59;;;;;;;12.67;9.80;;;;;;;;;;5053533;28;20627;-60
2023/12/15 01:05:27;;;;;;;11.83;9.40;;;;;;;;;;5053304;28;21011;-60
2023/12/15 01:07:54;;;;;;;12.10;9.90;;;;;;;;;;5053364;28;20936;-60
2023/12/15 01:10:21;;;;;;;12.43;9.33;;;;;;;;;;5053513;28;20535;-60
2023/12/15 01:12:48;;;;;;;11.70;9.80;;;;;;;;;;5053397;28;20890;-60
2023/12/15 01:15:16;;;;;;;11.37;8.60;;;;;;;;;;5053395;28;20527;-59
2023/12/15 01:17:43;;;;;;;12.23;8.87;;;;;;;;;;5053333;28;20875;-59
2023/12/15 01:20:13;;;;;;;10.00;8.40;;;;;;;;;;5053326;28;20450;-60
2023/12/15 01:22:40;;;;;;;10.27;9.07;;;;;;;;;;5053334;28;20444;-60
2023/12/15 01:25:07;;;;;;;11.50;8.60;;;;;;;;;;5053371;28;20499;-60
2023/12/15 01:27:34;;;;;;;11.00;8.17;;;;;;;;;;5053349;28;20543;-60
2023/12/15 01:30:01;;;;;;;11.20;9.10;;;;;;;;;;5053073;28;20444;-60
2023/12/15 01:32:29;;;;;;;9.75;8.25;;;;;;;;;;5052987;28;20535;-60
2023/12/15 01:34:56;;;;;;;16.30;10.57;;;;;;;;;;5053222;28;20312;-59
2023/12/15 01:37:23;;;;;;;10.93;9.37;;;;;;;;;;5053038;28;20449;-60
2023/12/15 01:39:51;;;;;;;14.17;9.60;;;;;;;;;;5053028;28;20531;-60
2023/12/15 01:42:18;;;;;;;11.43;9.10;;;;;;;;;;5053009;28;20455;-60
2023/12/15 01:44:45;;;;;;;10.37;8.67;;;;;;;;;;5052814;28;20542;-60
2023/12/15 01:47:14;;;;;;;11.73;8.85;;;;;;;;;;5052789;28;20444;-60
2023/12/15 01:49:42;;;;;;;11.70;9.20;;;;;;;;;;5052956;28;20196;-60
2023/12/15 01:52:09;;;;;;;10.90;9.00;;;;;;;;;;5052943;28;20918;-60
2023/12/15 01:54:36;;;;;;;12.17;9.40;;;;;;;;;;5052618;28;20487;-60
2023/12/15 01:57:03;;;;;;;13.13;9.10;;;;;;;;;;5052740;28;20448;-60
2023/12/15 01:59:41;;;;;;;10.43;8.10;;;;;;;;;;5052690;28;20807;-60
2023/12/15 02:02:08;;;;;;;13.10;9.20;;;;;;;;;;5052899;28;20877;-60
2023/12/15 02:04:35;;;;;;;10.90;8.87;;;;;;;;;;5053067;28;20539;-60
2023/12/15 02:07:04;;;;;;;10.47;8.47;;;;;;;;;;5052685;28;20537;-60
2023/12/15 02:09:30;;;;;;;9.05;8.15;;;;;;;;;;5052679;28;20451;-60
2023/12/15 02:11:57;;;;;;;10.23;9.17;;;;;;;;;;5052643;28;20222;-60
2023/12/15 02:14:24;;;;;;;10.75;9.00;;;;;;;;;;5052376;28;20990;-60
2023/12/15 02:16:51;;;;;;;14.03;9.80;;;;;;;;;;5052673;28;20189;-60
2023/12/15 02:19:18;;;;;;;11.30;8.40;;;;;;;;;;5052652;28;20450;-60
2023/12/15 02:21:45;;;;;;;10.90;9.70;;;;;;;;;;5052775;28;20476;-59
2023/12/15 02:24:13;;;;;;;11.47;8.83;;;;;;;;;;5052464;28;20442;-60
2023/12/15 02:26:40;;;;;;;12.97;9.80;;;;;;;;;;5052446;28;20451;-60
2023/12/15 02:29:07;;;;;;;11.30;8.67;;;;;;;;;;5052655;28;20873;-60
2023/12/15 02:31:34;;;;;;;10.23;8.80;;;;;;;;;;5052519;28;20543;-60
2023/12/15 02:34:01;;;;;;;10.55;9.52;;;;;;;;;;5052828;28;20447;-60
2023/12/15 02:36:28;;;;;;;11.53;9.77;;;;;;;;;;5052580;28;20308;-60
2023/12/15 02:38:55;;;;;;;11.52;9.35;;;;;;;;;;5052404;28;20452;-59
2023/12/15 02:41:23;;;;;;;12.03;9.00;;;;;;;;;;5052290;28;20194;-60
2023/12/15 02:43:49;;;;;;;11.67;9.07;;;;;;;;;;5052509;28;20464;-60
2023/12/15 02:46:16;;;;;;;11.07;8.40;;;;;;;;;;5052415;28;20448;-60
2023/12/15 02:48:43;;;;;;;11.20;7.83;;;;;;;;;;5054616;28;20480;-60
2023/12/15 02:51:11;;;;;;;14.70;10.57;;;;;;;;;;5056019;28;20444;-59
2023/12/15 02:53:40;;;;;;;12.60;8.80;;;;;;;;;;5055834;28;20475;-60
2023/12/15 02:56:07;;;;;;;12.00;9.27;;;;;;;;;;5055629;28;20491;-60
2023/12/15 02:58:35;;;;;;;10.63;8.80;;;;;;;;;;5055946;28;20619;-60
2023/12/15 03:01:02;;;;;;;12.67;9.70;;;;;;;;;;5055857;28;20800;-59
2023/12/15 03:03:29;;;;;;;12.63;9.90;;;;;;;;;;5055808;28;20532;-60
2023/12/15 03:05:56;;;;;;;12.30;9.20;;;;;;;;;;5055693;28;20450;-60
2023/12/15 03:08:24;;;;;;;13.47;9.83;;;;;;;;;;5055565;28;20811;-60
2023/12/15 03:10:54;;;;;;;11.17;8.20;;;;;;;;;;5055802;28;20495;-60
2023/12/15 03:13:21;;;;;;;11.33;8.10;;;;;;;;;;5055733;28;20451;-60
2023/12/15 03:15:50;;;;;;;11.18;8.10;;;;;;;;;;5055473;28;20582;-60
2023/12/15 03:18:17;;;;;;;12.00;8.17;;;;;;;;;;5055457;28;20194;-60
2023/12/15 03:20:44;;;;;;;9.93;8.83;;;;;;;;;;5055429;28;20887;-60
2023/12/15 03:23:11;;;;;;;11.68;8.77;;;;;;;;;;5055258;28;20451;-60
2023/12/15 03:25:38;;;;;;;9.07;8.07;;;;;;;;;;5055489;28;20277;-60
2023/12/15 03:28:06;;;;;;;11.18;8.07;;;;;;;;;;5055395;28;20546;-60
2023/12/15 03:30:32;;;;;;;9.75;8.18;;;;;;;;;;5055287;28;20186;-60
2023/12/15 03:33:01;;;;;;;9.80;8.07;;;;;;;;;;5055212;28;20198;-60
2023/12/15 03:35:28;;;;;;;9.15;7.43;;;;;;;;;;5054948;28;20468;-60
2023/12/15 03:37:55;;;;;;;20.17;14.95;;;;;;;;;;5055237;28;20190;-59
2023/12/15 03:40:21;;;;;;;12.77;8.50;;;;;;;;;;5054956;28;20626;-59
2023/12/15 03:42:48;;;;;;;10.90;7.90;;;;;;;;;;5055049;28;20445;-60
2023/12/15 03:45:15;;;;;;;10.57;7.90;;;;;;;;;;5054944;28;20543;-60
2023/12/15 03:47:42;;;;;;;8.57;7.68;;;;;;;;;;5054931;28;20448;-59
2023/12/15 03:50:11;;;;;;;10.70;8.27;;;;;;;;;;5054956;28;20194;-60
2023/12/15 03:52:38;;;;;;;9.25;8.15;;;;;;;;;;5054958;28;20449;-59
2023/12/15 03:55:05;;;;;;;12.63;8.13;;;;;;;;;;5054672;28;20230;-59
2023/12/15 03:57:32;;;;;;;10.25;7.93;;;;;;;;;;5055096;28;20568;-60
2023/12/15 03:59:59;;;;;;;10.20;8.33;;;;;;;;;;5053812;28;20200;-59
2023/12/15 04:02:26;;;;;;;10.25;7.85;;;;;;;;;;5054802;28;20498;-60
2023/12/15 04:04:53;;;;;;;12.88;9.82;;;;;;;;;;5054725;28;20204;-59
2023/12/15 04:07:21;;;;;;;9.77;8.30;;;;;;;;;;5054657;28;20189;-60
2023/12/15 04:09:48;;;;;;;9.88;7.03;;;;;;;;;;5054501;28;20621;-60
2023/12/15 04:12:16;;;;;;;11.25;8.32;;;;;;;;;;5054420;28;20190;-59
2023/12/15 04:14:43;;;;;;;11.80;9.02;;;;;;;;;;5054500;28;20677;-59
2023/12/15 04:17:10;;;;;;;10.18;8.02;;;;;;;;;;5054275;28;20194;-59
2023/12/15 04:19:37;;;;;;;11.32;7.38;;;;;;;;;;5054502;28;20196;-59
2023/12/15 04:22:04;;;;;;;11.23;8.60;;;;;;;;;;5054379;28;20186;-59
2023/12/15 04:24:32;;;;;;;10.30;7.75;;;;;;;;;;5054244;28;20276;-59
2023/12/15 04:26:59;;;;;;;11.02;8.68;;;;;;;;;;5054231;28;20281;-59
2023/12/15 04:29:26;;;;;;;10.63;8.20;;;;;;;;;;5054124;28;20572;-59
2023/12/15 04:31:53;;;;;;;8.48;6.97;;;;;;;;;;5054447;28;20264;-60
2023/12/15 04:34:20;;;;;;;9.07;8.18;;;;;;;;;;5054152;28;20287;-59
2023/12/15 04:36:47;;;;;;;10.65;7.80;;;;;;;;;;5054094;28;20280;-59
2023/12/15 04:39:14;;;;;;;9.77;8.18;;;;;;;;;;5053937;28;20280;-60
2023/12/15 04:41:42;;;;;;;10.55;7.72;;;;;;;;;;5053952;28;20197;-59
2023/12/15 04:44:09;;;;;;;10.25;8.18;;;;;;;;;;5053698;28;20280;-59
2023/12/15 04:46:37;;;;;;;11.77;9.27;;;;;;;;;;5053861;28;20201;-60
2023/12/15 04:49:06;;;;;;;10.88;7.72;;;;;;;;;;5053850;28;20202;-59
2023/12/15 04:51:33;;;;;;;10.70;8.15;;;;;;;;;;5053767;28;20546;-59
2023/12/15 04:53:59;;;;;;;9.60;7.25;;;;;;;;;;5053644;28;20281;-59
2023/12/15 04:56:26;;;;;;;10.98;9.30;;;;;;;;;;5053316;28;20236;-59
2023/12/15 04:58:55;;;;;;;14.85;9.52;;;;;;;;;;5053396;28;20276;-58
2023/12/15 05:01:22;;;;;;;12.63;8.82;;;;;;;;;;5053666;28;20616;-59
2023/12/15 05:03:48;;;;;;;12.77;9.38;;;;;;;;;;5053554;28;20200;-59
2023/12/15 05:06:18;;;;;;;14.55;9.68;;;;;;;;;;5053732;28;20277;-59
2023/12/15 05:08:46;;;;;;;12.88;9.43;;;;;;;;;;5053339;28;20240;-59
2023/12/15 05:11:12;;;;;;;12.27;9.55;;;;;;;;;;5052922;28;20190;-60
2023/12/15 05:13:39;;;;;;;13.35;8.95;;;;;;;;;;5053358;28;20190;-59
2023/12/15 05:16:08;;;;;;;11.60;9.27;;;;;;;;;;5053346;28;20221;-59
2023/12/15 05:18:35;;;;;;;13.93;9.10;;;;;;;;;;5053312;28;20193;-60
2023/12/15 05:21:03;;;;;;;15.77;9.77;;;;;;;;;;5053211;28;20225;-60
2023/12/15 05:23:29;;;;;;;13.02;9.95;;;;;;;;;;5053204;28;20704;-59
2023/12/15 05:25:56;;;;;;;12.77;9.07;;;;;;;;;;5052913;28;20225;-59
2023/12/15 05:28:23;;;;;;;14.18;10.20;;;;;;;;;;5053248;28;20186;-59
2023/12/15 05:30:50;;;;;;;21.13;9.85;;;;;;;;;;5053435;28;20190;-59
2023/12/15 05:33:18;;;;;;;12.45;9.15;;;;;;;;;;5053025;28;20297;-60
2023/12/15 05:35:45;;;;;;;12.52;9.55;;;;;;;;;;5052907;28;20224;-59
2023/12/15 05:38:12;;;;;;;12.73;9.82;;;;;;;;;;5052951;28;20277;-59
2023/12/15 05:40:40;;;;;;;33.75;18.63;;;;;;;;;;5052762;28;20564;-59
2023/12/15 05:43:07;;;;;;;14.70;9.75;;;;;;;;;;5053024;28;20719;-59
2023/12/15 05:45:34;;;;;;;13.10;9.90;;;;;;;;;;5052894;28;20194;-59
2023/12/15 05:48:01;;;;;;;11.55;9.98;;;;;;;;;;5052842;28;20189;-60
2023/12/15 05:50:29;;;;;;;15.63;10.60;;;;;;;;;;5052767;28;20598;-60
2023/12/15 05:52:56;;;;;;;13.15;9.52;;;;;;;;;;5053047;28;20260;-59
2023/12/15 05:55:23;;;;;;;16.55;9.80;;;;;;;;;;5052618;28;20224;-60
2023/12/15 05:57:49;;;;;;;11.80;9.63;;;;;;;;;;5052875;28;20296;-60
2023/12/15 06:00:16;;;;;;;12.17;8.67;;;;;;;;;;5052761;28;20705;-59
2023/12/15 06:02:44;;;;;;;12.48;9.18;;;;;;;;;;5052678;28;20444;-60
2023/12/15 06:05:11;;;;;;;17.70;10.18;;;;;;;;;;5052638;28;20232;-60
2023/12/15 06:07:41;;;;;;;10.57;7.88;;;;;;;;;;5052786;28;20194;-60
2023/12/15 06:10:08;;;;;;;12.60;8.88;;;;;;;;;;5052779;28;20192;-60
2023/12/15 06:12:35;;;;;;;12.82;9.07;;;;;;;;;;5052660;28;20277;-59
2023/12/15 06:15:02;;;;;;;15.40;9.98;;;;;;;;;;5052377;28;20193;-60
2023/12/15 06:17:29;;;;;;;15.45;11.23;;;;;;;;;;5052503;28;20257;-60
2023/12/15 06:19:56;;;;;;;10.45;8.95;;;;;;;;;;5052403;28;20192;-60
2023/12/15 06:22:23;;;;;;;14.13;9.85;;;;;;;;;;5053205;28;20545;-59
2023/12/15 06:24:51;;;;;;;16.58;10.00;;;;;;;;;;5056750;28;20190;-59
2023/12/15 06:27:18;;;;;;;15.68;10.07;;;;;;;;;;5056475;28;20205;-60
2023/12/15 06:29:45;;;;;;;13.93;9.75;;;;;;;;;;5056416;28;20649;-59
2023/12/15 06:32:14;;;;;;;14.55;10.50;;;;;;;;;;5056203;28;20281;-59
2023/12/15 06:34:43;;;;;;;15.68;10.45;;;;;;;;;;5056208;28;20217;-60
2023/12/15 06:37:09;;;;;;;10.68;8.98;;;;;;;;;;5056239;28;20217;-59
2023/12/15 06:39:36;;;;;;;14.00;9.82;;;;;;;;;;5056344;28;20248;-59
2023/12/15 06:42:05;;;;;;;19.65;10.65;;;;;;;;;;5056273;28;20737;-59
2023/12/15 06:44:32;;;;;;;14.65;9.77;;;;;;;;;;5056016;28;20618;-59
2023/12/15 06:46:59;;;;;;;16.98;10.75;;;;;;;;;;5056188;28;20200;-59
2023/12/15 06:49:30;;;;;;;18.45;11.77;;;;;;;;;;5055707;28;20596;-60
2023/12/15 06:51:57;;;;;;;18.00;10.48;;;;;;;;;;5055908;28;20200;-59
2023/12/15 06:54:24;;;;;;;18.17;11.23;;;;;;;;;;5055939;28;20390;-60
2023/12/15 06:56:51;;;;;;;17.75;11.63;;;;;;;;;;5056070;28;20225;-59
2023/12/15 06:59:19;;;;;;;17.08;11.05;;;;;;;;;;5055729;28;20308;-59
2023/12/15 07:01:45;;;;;;;17.40;11.15;;;;;;;;;;5055649;28;20277;-60
2023/12/15 07:04:12;;;;;;;18.75;11.77;;;;;;;;;;5055893;28;20603;-59
2023/12/15 07:06:39;;;;;;;19.73;13.10;;;;;;;;;;5055910;28;20284;-59
2023/12/15 07:09:06;;;;;;;18.00;11.70;;;;;;;;;;5055715;28;20217;-60
2023/12/15 07:11:33;;;;;;;18.30;11.15;;;;;;;;;;5055815;28;20202;-59
2023/12/15 07:14:01;;;;;;;17.88;11.77;;;;;;;;;;5055540;28;20194;-59
2023/12/15 07:16:29;;;;;;;17.25;11.82;;;;;;;;;;5055307;28;20214;-60
2023/12/15 07:18:56;;;;;;;20.50;12.40;;;;;;;;;;5055479;28;20285;-60
2023/12/15 07:21:23;;;;;;;14.68;11.48;;;;;;;;;;5055547;28;20613;-60
2023/12/15 07:23:50;;;;;;;15.93;11.55;;;;;;;;;;5055417;28;20671;-59
2023/12/15 07:26:17;;;;;;;17.73;12.55;;;;;;;;;;5055359;28;20190;-59
2023/12/15 07:28:44;;;;;;;17.80;12.40;;;;;;;;;;5055283;28;20201;-60
2023/12/15 07:31:11;;;;;;;19.98;12.63;;;;;;;;;;5055254;28;20536;-60
2023/12/15 07:33:39;;;;;;;19.80;13.50;;;;;;;;;;5054969;28;20194;-60
2023/12/15 07:36:07;;;;;;;18.97;11.77;;;;;;;;;;5055036;28;20264;-60
2023/12/15 07:38:33;;;;;;;19.15;12.82;;;;;;;;;;5054980;28;20448;-60
2023/12/15 07:41:00;;;;;;;17.42;12.05;;;;;;;;;;5054937;28;20717;-59
2023/12/15 07:43:28;;;;;;;18.05;11.45;;;;;;;;;;5054877;28;20723;-60
2023/12/15 07:45:55;;;;;;;21.13;12.50;;;;;;;;;;5054993;28;20561;-60
2023/12/15 07:48:22;;;;;;;16.08;11.82;;;;;;;;;;5054834;28;20196;-60
2023/12/15 07:50:50;;;;;;;15.85;10.45;;;;;;;;;;5055000;28;20193;-60
2023/12/15 07:53:17;;;;;;;16.50;12.60;;;;;;;;;;5054630;28;20276;-59
2023/12/15 07:55:44;;;;;;;14.02;10.35;;;;;;;;;;5054387;28;20228;-60
2023/12/15 07:58:11;;;;;;;16.00;11.33;;;;;;;;;;5054477;28;20186;-59
2023/12/15 08:00:38;;;;;;;17.83;11.27;;;;;;;;;;5054587;28;20547;-59
2023/12/15 08:03:05;;;;;;;16.65;12.27;;;;;;;;;;5054807;28;20221;-60
2023/12/15 08:05:32;;;;;;;17.80;12.17;;;;;;;;;;5054343;28;20285;-60
2023/12/15 08:08:00;;;;;;;18.80;14.10;;;;;;;;;;5054251;28;20462;-59
2023/12/15 08:10:29;;;;;;;18.25;11.93;;;;;;;;;;5054262;28;20276;-55
2023/12/15 08:12:56;;;;;;;18.92;12.30;;;;;;;;;;5068827;28;20649;-60
2023/12/15 08:15:23;;;;;;;18.95;12.70;;;;;;;;;;5074346;28;20530;-60
2023/12/15 08:17:50;;;;;;;20.83;13.38;;;;;;;;;;5074312;28;20223;-59
2023/12/15 08:20:17;;;;;;;20.52;14.75;;;;;;;;;;5074178;28;20185;-58
2023/12/15 08:22:44;;;;;;;21.17;16.20;;;;;;;;;;5074132;28;20322;-60
2023/12/15 08:25:12;;;;;;;19.45;14.43;;;;;;;;;;5074072;28;20275;-58
2023/12/15 08:27:41;;;;;;;18.02;12.40;;;;;;;;;;5074203;28;20193;-59
2023/12/15 08:30:09;;;;;;;17.83;12.13;;;;;;;;;;5073811;28;20645;-60
2023/12/15 08:32:35;;;;;;;21.57;13.47;;;;;;;;;;5073791;28;20593;-60
2023/12/15 08:35:02;;;;;;;18.17;11.27;;;;;;;;;;5074054;28;20454;-60
2023/12/15 08:37:29;;;;;;;19.48;12.02;;;;;;;;;;5073640;28;20246;-60
2023/12/15 08:39:57;;;;;;;20.02;13.95;;;;;;;;;;5073841;28;20190;-59
2023/12/15 08:42:25;;;;;;;21.35;13.38;;;;;;;;;;5073719;28;20653;-59
2023/12/15 08:44:52;;;;;;;20.50;12.30;;;;;;;;;;5073478;28;20191;-59
2023/12/15 08:47:19;;;;;;;22.63;13.23;;;;;;;;;;5073304;28;20280;-58
2023/12/15 08:49:46;;;;;;;18.17;12.33;;;;;;;;;;5073536;28;20558;-62
2023/12/15 08:52:13;;;;;;;17.92;12.77;;;;;;;;;;5073462;28;20453;-60
2023/12/15 08:54:40;;;;;;;18.90;12.75;;;;;;;;;;5073476;28;20304;-60
2023/12/15 08:57:07;;;;;;;18.40;12.43;;;;;;;;;;5073267;28;20216;-60
2023/12/15 08:59:35;;;;;;;24.00;13.90;;;;;;;;;;5073371;28;20452;-60
2023/12/15 09:02:02;;;;;;;22.67;13.57;;;;;;;;;;5073154;28;20448;-61
2023/12/15 09:04:29;;;;;;;18.50;12.40;;;;;;;;;;5073380;28;20444;-60
2023/12/15 09:06:55;;;;;;;17.77;12.10;;;;;;;;;;5073168;28;20199;-62
2023/12/15 09:09:23;;;;;;;19.30;13.47;;;;;;;;;;5073486;28;20280;-62
2023/12/15 09:11:50;;;;;;;20.70;13.00;;;;;;;;;;5073402;28;20447;-60
2023/12/15 09:14:17;;;;;;;20.88;11.65;;;;;;;;;;5073335;28;20454;-62
2023/12/15 09:16:47;;;;;;;16.33;10.98;;;;;;;;;;5072925;28;20676;-61
2023/12/15 09:19:14;;;;;;;21.20;12.30;;;;;;;;;;5072943;28;20195;-59
2023/12/15 09:21:41;;;;;;;22.90;13.15;;;;;;;;;;5073223;28;20281;-62
2023/12/15 09:24:08;;;;;;;23.73;13.23;;;;;;;;;;5073206;28;20280;-59
2023/12/15 09:26:38;;;;;;;16.47;11.70;;;;;;;;;;5073017;28;20535;-61
2023/12/15 09:29:05;;;;;;;20.23;13.00;;;;;;;;;;5073075;28;20843;-60
2023/12/15 09:31:32;;;;;;;19.03;11.70;;;;;;;;;;5072868;28;20192;-57
2023/12/15 09:34:00;;;;;;;16.50;12.33;;;;;;;;;;5073168;28;20486;-60
2023/12/15 09:36:27;;;;;;;18.17;12.17;;;;;;;;;;5072867;28;20539;-58
2023/12/15 09:38:54;;;;;;;17.40;13.60;;;;;;;;;;5072989;28;20534;-61
2023/12/15 09:41:21;;;;;;;21.07;13.20;;;;;;;;;;5072926;28;20443;-59
2023/12/15 09:43:48;;;;;;;19.92;13.82;;;;;;;;;;5072541;28;20443;-60
2023/12/15 09:46:15;;;;;;;21.50;15.17;;;;;;;;;;5072682;28;20268;-64
2023/12/15 09:48:42;;;;;;;19.40;13.43;;;;;;;;;;5072472;28;20536;-58
2023/12/15 09:51:15;;;;;;;25.13;17.93;;;;;;;;;;5072671;28;20798;-60
2023/12/15 09:53:46;;;;;;;21.43;13.53;;;;;;;;;;5072893;28;20471;-59
2023/12/15 09:56:13;;;;;;;20.50;14.60;;;;;;;;;;5072450;28;20562;-61
2023/12/15 09:58:40;;;;;;;20.10;12.77;;;;;;;;;;5076449;28;20483;-61
2023/12/15 10:01:07;;;;;;;21.30;12.57;;;;;;;;;;5076973;28;20534;-60
2023/12/15 10:03:34;;;;;;;20.37;12.53;;;;;;;;;;5076894;28;20280;-54
2023/12/15 10:06:01;;;;;;;19.30;12.43;;;;;;;;;;5076912;28;20807;-58
2023/12/15 10:08:39;;;;;;;22.63;13.60;;;;;;;;;;5076894;28;20520;-63
2023/12/15 10:11:07;;;;;;;20.50;12.70;;;;;;;;;;5076684;28;20450;-62
2023/12/15 10:13:34;;;;;;;22.97;13.00;;;;;;;;;;5076547;28;20443;-60
2023/12/15 10:16:01;;;;;;;22.45;12.43;;;;;;;;;;5076758;28;20855;-54
2023/12/15 10:18:28;;;;;;;22.20;13.20;;;;;;;;;;5076507;28;20216;-58
2023/12/15 10:20:55;;;;;;;19.70;13.17;;;;;;;;;;5076545;28;20443;-57
2023/12/15 10:23:27;;;;;;;19.80;13.23;;;;;;;;;;5076402;28;20451;-60
2023/12/15 10:25:55;;;;;;;19.50;13.70;;;;;;;;;;5076363;28;20474;-60
2023/12/15 10:28:22;;;;;;;17.92;13.15;;;;;;;;;;5076410;28;20449;-60
2023/12/15 10:30:50;;;;;;;19.40;13.40;;;;;;;;;;5076400;28;20281;-60
2023/12/15 10:33:18;;;;;;;21.77;13.63;;;;;;;;;;5076238;28;20454;-57
2023/12/15 10:35:47;;;;;;;18.03;12.60;;;;;;;;;;5075924;28;20454;-57
2023/12/15 10:38:14;;;;;;;20.73;13.50;;;;;;;;;;5075849;28;20496;-58
2023/12/15 10:40:42;;;;;;;22.57;13.30;;;;;;;;;;5075828;28;20473;-60
2023/12/15 10:43:11;;;;;;;20.23;13.00;;;;;;;;;;5076084;28;20947;-55
2023/12/15 10:45:38;;;;;;;24.47;15.20;;;;;;;;;;5076133;28;20999;-59
2023/12/15 10:48:05;;;;;;;22.67;14.83;;;;;;;;;;5075820;28;20538;-53
2023/12/15 10:50:32;;;;;;;22.00;14.03;;;;;;;;;;5075827;28;20930;-61
2023/12/15 10:52:59;;;;;;;21.57;14.33;;;;;;;;;;5075374;28;20526;-60
2023/12/15 10:55:26;;;;;;;22.70;14.60;;;;;;;;;;5075650;28;20467;-61
2023/12/15 10:57:53;;;;;;;25.57;13.63;;;;;;;;;;5075578;28;20993;-60
2023/12/15 11:00:21;;;;;;;24.70;13.70;;;;;;;;;;5075711;28;20447;-59
2023/12/15 11:02:49;;;;;;;20.63;14.20;;;;;;;;;;5075622;28;20550;-59
2023/12/15 11:05:17;;;;;;;29.17;15.40;;;;;;;;;;5075741;28;20450;-59
2023/12/15 11:07:44;;;;;;;27.83;15.60;;;;;;;;;;5075496;28;20441;-59
2023/12/15 11:10:12;;;;;;;22.30;14.17;;;;;;;;;;5074948;28;20475;-61
2023/12/15 11:12:41;;;;;;;24.83;15.30;;;;;;;;;;5075422;28;20443;-59
2023/12/15 11:15:08;;;;;;;22.70;14.00;;;;;;;;;;5075380;28;21020;-62
2023/12/15 11:17:40;;;;;;;22.57;15.17;;;;;;;;;;5075413;28;20479;-61
2023/12/15 11:20:11;;;;;;;23.10;14.77;;;;;;;;;;5075199;28;20454;-61
2023/12/15 11:22:41;;;;;;;27.30;16.23;;;;;;;;;;5075496;28;20440;-61
2023/12/15 11:25:09;;;;;;;24.67;15.63;;;;;;;;;;5075372;28;20443;-61
2023/12/15 11:27:51;;;;;;;22.07;14.90;;;;;;;;;;5075287;28;20451;-60
2023/12/15 11:30:28;;;;;;;24.53;16.57;;;;;;;;;;5074793;28;20467;-53
2023/12/15 11:32:56;;;;;;;22.00;14.43;;;;;;;;;;5075003;28;21016;-60
2023/12/15 11:35:30;;;;;;;25.53;15.20;;;;;;;;;;5075193;28;20534;-60
2023/12/15 11:37:58;;;;;;;22.80;14.67;;;;;;;;;;5075251;28;20594;-59
2023/12/15 11:40:29;;;;;;;24.70;15.17;;;;;;;;;;5075033;28;20994;-61
2023/12/15 11:42:56;;;;;;;23.33;16.27;;;;;;;;;;5074889;28;20729;-59
2023/12/15 11:45:26;;;;;;;25.40;15.83;;;;;;;;;;5074680;28;20847;-61
2023/12/15 11:47:53;;;;;;;27.03;16.87;;;;;;;;;;5074864;28;20454;-61
2023/12/15 11:50:22;;;;;;;27.90;15.93;;;;;;;;;;5074780;28;20450;-58
2023/12/15 11:52:49;;;;;;;24.23;15.43;;;;;;;;;;5075018;28;20443;-59
2023/12/15 11:55:17;;;;;;;25.03;16.00;;;;;;;;;;5074750;28;20471;-60
2023/12/15 11:57:44;;;;;;;26.23;17.43;;;;;;;;;;5073603;28;20988;-59
2023/12/15 12:00:13;;;;;;;25.60;16.50;;;;;;;;;;5074247;28;20527;-59
2023/12/15 12:02:41;;;;;;;22.20;14.00;;;;;;;;;;5074787;28;20490;-59
2023/12/15 12:05:08;;;;;;;27.43;18.93;;;;;;;;;;5074675;28;20448;-59
2023/12/15 12:07:37;;;;;;;25.97;18.47;;;;;;;;;;5074596;28;20542;-59
2023/12/15 12:10:05;;;;;;;21.57;15.97;;;;;;;;;;5074407;28;20447;-59
2023/12/15 12:12:32;;;;;;;26.53;16.67;;;;;;;;;;5073013;28;20448;-59
2023/12/15 12:15:03;;;;;;;25.73;17.10;;;;;;;;;;5072335;28;20454;-58
2023/12/15 12:17:32;;;;;;;24.43;16.60;;;;;;;;;;5072395;28;20483;-59
2023/12/15 12:20:04;;;;;;;24.80;16.00;;;;;;;;;;5071616;28;20450;-59
2023/12/15 12:22:32;;;;;;;25.97;15.80;;;;;;;;;;5072691;28;20451;-58
2023/12/15 12:25:00;;;;;;;23.03;15.90;;;;;;;;;;5072161;28;20881;-59
2023/12/15 12:27:32;;;;;;;21.63;15.20;;;;;;;;;;5073505;28;20454;-59
2023/12/15 12:29:59;;;;;;;21.00;13.23;;;;;;;;;;5074228;28;20455;-59
2023/12/15 12:32:26;;;;;;;23.23;15.13;;;;;;;;;;5074012;28;20531;-59
2023/12/15 12:34:53;;;;;;;26.50;15.30;;;;;;;;;;5074007;28;20542;-59
2023/12/15 12:37:20;;;;;;;23.67;16.10;;;;;;;;;;5073861;28;20497;-59
2023/12/15 12:39:47;;;;;;;21.53;14.87;;;;;;;;;;5073822;28;20947;-58
2023/12/15 12:42:16;;;;;;;21.50;13.53;;;;;;;;;;5073960;28;20893;-59
2023/12/15 12:44:43;;;;;;;23.50;15.30;;;;;;;;;;5073810;28;20444;-59
2023/12/15 12:47:10;;;;;;;27.33;15.67;;;;;;;;;;5073820;28;20550;-59
2023/12/15 12:49:37;;;;;;;23.40;14.73;;;;;;;;;;5073888;28;20454;-59
2023/12/15 12:52:04;;;;;;;21.40;14.90;;;;;;;;;;5073653;28;20480;-59
2023/12/15 12:54:31;;;;;;;25.27;15.13;;;;;;;;;;5073625;28;20535;-59
2023/12/15 12:56:58;;;;;;;24.77;15.17;;;;;;;;;;5073673;28;20446;-59
2023/12/15 12:59:26;;;;;;;26.60;15.40;;;;;;;;;;5073441;28;20490;-62
2023/12/15 13:01:53;;;;;;;24.97;15.30;;;;;;;;;;5073560;28;20538;-58
2023/12/15 13:04:20;;;;;;;27.37;16.57;;;;;;;;;;5073398;28;20472;-59
2023/12/15 13:06:47;;;;;;;24.30;15.00;;;;;;;;;;5073501;28;20470;-59
2023/12/15 13:09:18;;;;;;;24.07;15.67;;;;;;;;;;5073637;28;20508;-59
2023/12/15 13:11:45;;;;;;;31.03;21.13;;;;;;;;;;5073438;28;20538;-59
2023/12/15 13:14:12;;;;;;;27.43;15.77;;;;;;;;;;5073277;28;20448;-59
2023/12/15 13:16:40;;;;;;;27.10;16.07;;;;;;;;;;5073107;28;20443;-59
2023/12/15 13:19:07;;;;;;;23.87;16.40;;;;;;;;;;5073582;28;20521;-59
2023/12/15 13:21:34;;;;;;;28.47;19.10;;;;;;;;;;5073401;28;20526;-59
2023/12/15 13:24:01;;;;;;;27.43;16.47;;;;;;;;;;5073186;28;20530;-59
2023/12/15 13:26:28;;;;;;;24.30;16.67;;;;;;;;;;5073293;28;20529;-59
2023/12/15 13:28:55;;;;;;;27.30;17.37;;;;;;;;;;5073073;28;20450;-59
2023/12/15 13:31:22;;;;;;;26.50;17.73;;;;;;;;;;5072637;28;20450;-59
2023/12/15 13:33:51;;;;;;;23.10;14.60;;;;;;;;;;5073123;28;20562;-59
2023/12/15 13:36:19;;;;;;;24.77;16.13;;;;;;;;;;5073226;28;20868;-58
2023/12/15 13:38:47;;;;;;;23.90;16.47;;;;;;;;;;5073249;28;20519;-58
2023/12/15 13:41:14;;;;;;;27.27;17.63;;;;;;;;;;5072837;28;20934;-59
2023/12/15 13:43:42;;;;;;;24.20;15.80;;;;;;;;;;5072946;28;20444;-59
2023/12/15 13:46:09;;;;;;;27.00;16.43;;;;;;;;;;5072837;28;20454;-59
2023/12/15 13:48:36;;;;;;;25.20;14.57;;;;;;;;;;5073016;28;20459;-59
2023/12/15 13:51:05;;;;;;;22.40;14.47;;;;;;;;;;5072953;28;20558;-59
2023/12/15 13:53:32;;;;;;;34.23;27.87;;;;;;;;;;5072784;28;20526;-59
2023/12/15 13:55:59;;;;;;;28.50;18.17;;;;;;;;;;5072567;28;20472;-59
2023/12/15 13:58:26;;;;;;;28.07;16.53;;;;;;;;;;5072648;28;20483;-59
2023/12/15 14:00:53;;;;;;;25.97;16.27;;;;;;;;;;5072816;28;20457;-58
2023/12/15 14:03:20;;;;;;;28.60;17.30;;;;;;;;;;5072606;28;20454;-59
2023/12/15 14:05:47;;;;;;;25.37;16.33;;;;;;;;;;5072609;28;20447;-59
2023/12/15 14:08:15;;;;;;;24.50;16.40;;;;;;;;;;5072543;28;20449;-59
2023/12/15 14:10:42;;;;;;;26.93;16.60;;;;;;;;;;5072602;28;20564;-59
2023/12/15 14:13:09;;;;;;;24.47;15.53;;;;;;;;;;5072967;28;20443;-59
2023/12/15 14:15:36;;;;;;;25.80;16.83;;;;;;;;;;5072641;28;20443;-59
2023/12/15 14:18:03;;;;;;;33.73;18.53;;;;;;;;;;5072544;28;20913;-59
2023/12/15 14:20:30;;;;;;;28.67;17.40;;;;;;;;;;5072371;28;20450;-58
2023/12/15 14:22:57;;;;;;;28.90;16.53;;;;;;;;;;5072297;28;20443;-59
2023/12/15 14:25:26;;;;;;;26.93;15.53;;;;;;;;;;5072262;28;20447;-59